createdAt,value
2022-12-10T00:02:04.149Z,26.00
2022-12-10T00:04:30.647Z,27.75
2022-12-10T00:06:57.153Z,25.50
2022-12-10T00:09:23.682Z,29.75
2022-12-10T00:11:50.222Z,25.40
2022-12-10T00:14:16.661Z,24.00
2022-12-10T00:16:43.606Z,27.25
2022-12-10T00:19:10.175Z,30.40
2022-12-10T00:21:37.036Z,29.20
2022-12-10T00:24:04.109Z,33.00
2022-12-10T00:26:31.923Z,30.00
2022-12-10T00:28:58.597Z,25.50
2022-12-10T00:31:29.378Z,30.80
2022-12-10T00:33:56.986Z,32.25
2022-12-10T00:36:25.682Z,34.50
2022-12-10T00:38:52.406Z,33.00
2022-12-10T00:41:18.895Z,33.80
2022-12-10T00:43:45.779Z,31.00
2022-12-10T00:46:13.527Z,30.00
2022-12-10T00:48:40.154Z,36.00
2022-12-10T00:51:07.907Z,29.20
2022-12-10T00:53:35.091Z,32.25
2022-12-10T00:56:01.705Z,33.20
2022-12-10T00:58:29.505Z,30.20
2022-12-10T01:01:06.915Z,28.00
2022-12-10T01:03:33.423Z,30.00
2022-12-10T01:06:08.036Z,29.00
2022-12-10T01:08:34.451Z,30.00
2022-12-10T01:11:00.890Z,30.00
2022-12-10T01:13:27.311Z,25.50
2022-12-10T01:15:53.792Z,31.60
2022-12-10T01:18:20.285Z,27.60
2022-12-10T01:20:46.765Z,31.25
2022-12-10T01:23:13.195Z,30.50
2022-12-10T01:25:39.631Z,29.80
2022-12-10T01:28:06.202Z,30.40
2022-12-10T01:30:33.642Z,32.33
2022-12-10T01:33:00.093Z,32.00
2022-12-10T01:35:26.521Z,29.25
2022-12-10T01:37:52.996Z,34.50
2022-12-10T01:40:19.533Z,33.50
2022-12-10T01:42:46.129Z,30.00
2022-12-10T01:45:13.390Z,31.75
2022-12-10T01:47:40.180Z,29.20
2022-12-10T01:50:08.467Z,32.00
2022-12-10T01:52:35.247Z,28.00
2022-12-10T01:55:01.653Z,35.00
2022-12-10T01:57:29.426Z,32.20
2022-12-10T01:59:58.325Z,30.00
2022-12-10T02:02:27.799Z,32.00
2022-12-10T02:05:12.754Z,34.00
2022-12-10T02:07:58.237Z,30.00
2022-12-10T02:10:47.250Z,28.80
2022-12-10T02:13:23.103Z,30.40
2022-12-10T02:15:54.743Z,30.00
2022-12-10T02:18:41.413Z,29.60
2022-12-10T02:21:11.177Z,30.00
2022-12-10T02:23:40.937Z,32.25
2022-12-10T02:26:10.202Z,33.50
2022-12-10T02:28:51.027Z,27.40
2022-12-10T02:31:19.802Z,29.00
2022-12-10T02:33:50.547Z,30.50
2022-12-10T02:36:18.046Z,33.20
2022-12-10T02:38:45.009Z,33.00
2022-12-10T02:41:20.933Z,33.00
2022-12-10T02:43:49.007Z,34.33
2022-12-10T02:46:16.725Z,33.00
2022-12-10T02:48:43.305Z,33.00
2022-12-10T02:51:10.032Z,35.60
2022-12-10T02:53:42.201Z,37.00
2022-12-10T02:56:14.464Z,35.40
2022-12-10T02:58:40.857Z,37.00
2022-12-10T03:01:13.169Z,32.80
2022-12-10T03:03:51.123Z,36.20
2022-12-10T03:06:22.210Z,34.20
2022-12-10T03:08:51.767Z,33.50
2022-12-10T03:11:19.891Z,35.50
2022-12-10T03:13:51.657Z,35.20
2022-12-10T03:16:19.295Z,31.75
2022-12-10T03:18:48.049Z,34.00
2022-12-10T03:21:16.102Z,34.00
2022-12-10T03:23:44.200Z,35.00
2022-12-10T03:26:10.993Z,36.50
2022-12-10T03:28:40.684Z,31.00
2022-12-10T03:31:09.131Z,33.20
2022-12-10T03:33:35.657Z,33.00
2022-12-10T03:36:02.493Z,31.60
2022-12-10T03:38:29.080Z,33.40
2022-12-10T03:40:55.614Z,34.40
2022-12-10T03:43:22.433Z,33.00
2022-12-10T03:45:48.985Z,31.40
2022-12-10T03:48:15.467Z,33.40
2022-12-10T03:50:41.990Z,36.00
2022-12-10T03:53:08.493Z,30.20
2022-12-10T03:55:35.015Z,34.75
2022-12-10T03:58:01.482Z,33.40
2022-12-10T04:00:27.943Z,31.00
2022-12-10T04:02:54.438Z,37.00
2022-12-10T04:05:20.860Z,33.25
2022-12-10T04:07:47.350Z,33.00
2022-12-10T04:10:13.838Z,34.00
2022-12-10T04:12:40.253Z,35.00
2022-12-10T04:15:39.074Z,36.00
2022-12-10T04:18:05.530Z,34.00
2022-12-10T04:20:50.497Z,33.75
2022-12-10T04:23:35.360Z,34.00
2022-12-10T04:26:20.300Z,30.50
2022-12-10T04:28:46.779Z,32.00
2022-12-10T04:31:13.279Z,31.00
2022-12-10T04:33:39.755Z,32.60
2022-12-10T04:36:06.333Z,33.00
2022-12-10T04:38:32.783Z,31.60
2022-12-10T04:40:59.230Z,31.00
2022-12-10T04:43:25.707Z,31.00
2022-12-10T04:45:56.347Z,34.00
2022-12-10T04:48:22.839Z,32.50
2022-12-10T04:50:49.299Z,31.60
2022-12-10T04:53:15.875Z,32.60
2022-12-10T04:55:42.331Z,25.50
2022-12-10T04:58:08.813Z,36.40
2022-12-10T05:00:35.262Z,33.20
2022-12-10T05:03:01.711Z,33.25
2022-12-10T05:05:28.169Z,29.60
2022-12-10T05:07:54.712Z,29.60
2022-12-10T05:10:21.145Z,31.60
2022-12-10T05:12:47.589Z,31.00
2022-12-10T05:15:14.187Z,31.00
2022-12-10T05:17:40.659Z,33.00
2022-12-10T05:20:07.713Z,32.40
2022-12-10T05:22:52.675Z,31.00
2022-12-10T05:25:19.136Z,36.50
2022-12-10T05:27:45.633Z,33.00
2022-12-10T05:30:12.981Z,31.75
2022-12-10T05:32:39.665Z,30.50
2022-12-10T05:35:06.363Z,31.00
2022-12-10T05:37:32.889Z,32.00
2022-12-10T05:39:59.346Z,35.00
2022-12-10T05:42:25.777Z,28.67
2022-12-10T05:44:52.557Z,29.00
2022-12-10T05:47:19.007Z,28.00
2022-12-10T05:49:50.709Z,26.40
2022-12-10T05:52:18.749Z,32.00
2022-12-10T05:54:45.241Z,40.00
2022-12-10T05:57:11.750Z,47.00
2022-12-10T05:59:38.212Z,40.00
2022-12-10T06:02:04.636Z,34.00
2022-12-10T06:04:31.079Z,48.20
2022-12-10T06:06:57.590Z,33.40
2022-12-10T06:09:24.045Z,36.40
2022-12-10T06:11:50.689Z,35.75
2022-12-10T06:14:17.136Z,36.50
2022-12-10T06:16:43.626Z,33.60
2022-12-10T06:19:10.344Z,33.00
2022-12-10T06:21:36.836Z,30.00
2022-12-10T06:24:03.400Z,33.00
2022-12-10T06:26:29.895Z,33.25
2022-12-10T06:28:56.549Z,31.25
2022-12-10T06:31:23.553Z,38.00
2022-12-10T06:33:50.262Z,34.00
2022-12-10T06:36:17.831Z,36.25
2022-12-10T06:38:44.649Z,34.00
2022-12-10T06:41:11.748Z,35.40
2022-12-10T06:43:38.242Z,32.50
2022-12-10T06:46:08.266Z,32.00
2022-12-10T06:48:35.652Z,36.60
2022-12-10T06:51:02.389Z,32.00
2022-12-10T06:53:28.873Z,34.80
2022-12-10T06:55:55.359Z,41.00
2022-12-10T06:58:21.895Z,30.60
2022-12-10T07:00:48.351Z,37.33
2022-12-10T07:03:14.806Z,32.80
2022-12-10T07:05:41.284Z,31.00
2022-12-10T07:08:07.820Z,33.60
2022-12-10T07:10:34.242Z,29.50
2022-12-10T07:13:01.391Z,28.75
2022-12-10T07:15:29.356Z,30.00
2022-12-10T07:17:55.782Z,23.00
2022-12-10T07:20:22.274Z,23.33
2022-12-10T07:22:48.733Z,23.00
2022-12-10T07:25:15.192Z,31.25
2022-12-10T07:27:41.638Z,23.40
2022-12-10T07:30:08.653Z,30.00
2022-12-10T07:32:35.315Z,20.60
2022-12-10T07:35:01.842Z,18.60
2022-12-10T07:37:28.335Z,18.50
2022-12-10T07:39:54.771Z,14.00
2022-12-10T07:42:21.210Z,18.00
2022-12-10T07:44:49.401Z,23.00
2022-12-10T07:47:16.063Z,22.25
2022-12-10T07:49:42.563Z,17.40
2022-12-10T07:52:09.686Z,18.00
2022-12-10T07:54:36.178Z,19.25
2022-12-10T07:57:02.615Z,17.00
2022-12-10T07:59:29.166Z,24.60
2022-12-10T08:01:55.802Z,38.25
2022-12-10T08:04:22.271Z,36.25
2022-12-10T08:06:48.821Z,26.75
2022-12-10T08:09:15.492Z,31.00
2022-12-10T08:11:42.204Z,27.00
2022-12-10T08:14:08.661Z,31.00
2022-12-10T08:16:35.195Z,25.25
2022-12-10T08:19:02.096Z,30.20
2022-12-10T08:21:30.616Z,20.00
2022-12-10T08:23:57.391Z,24.33
2022-12-10T08:26:25.674Z,27.60
2022-12-10T08:28:52.840Z,32.00
2022-12-10T08:31:20.589Z,27.00
2022-12-10T08:33:47.121Z,34.40
2022-12-10T08:36:14.373Z,28.00
2022-12-10T08:38:41.302Z,33.75
2022-12-10T08:41:08.920Z,17.50
2022-12-10T08:43:35.765Z,20.00
2022-12-10T08:46:02.510Z,20.50
2022-12-10T08:48:29.119Z,18.00
2022-12-10T08:50:55.610Z,15.50
2022-12-10T08:53:22.171Z,16.00
2022-12-10T08:55:50.459Z,14.00
2022-12-10T08:58:16.940Z,11.75
2022-12-10T09:00:44.324Z,12.00
2022-12-10T09:03:10.920Z,13.60
2022-12-10T09:05:37.528Z,12.00
2022-12-10T09:08:04.032Z,11.00
2022-12-10T09:10:30.850Z,12.00
2022-12-10T09:13:02.691Z,13.80
2022-12-10T09:15:29.704Z,13.00
2022-12-10T09:17:56.166Z,12.00
2022-12-10T09:20:23.024Z,15.60
2022-12-10T09:22:49.597Z,9.00
2022-12-10T09:25:16.326Z,12.00
2022-12-10T09:27:42.948Z,12.80
2022-12-10T09:30:10.589Z,13.80
2022-12-10T09:32:37.393Z,16.00
2022-12-10T09:35:04.404Z,12.00
2022-12-10T09:37:30.930Z,13.00
2022-12-10T09:39:57.350Z,14.00
2022-12-10T09:42:33.353Z,14.00
2022-12-10T09:44:59.837Z,12.40
2022-12-10T09:47:30.609Z,16.60
2022-12-10T09:50:13.713Z,20.50
2022-12-10T09:52:43.113Z,33.25
2022-12-10T09:55:15.189Z,19.50
2022-12-10T09:57:49.430Z,21.75
2022-12-10T10:00:24.405Z,24.75
2022-12-10T10:02:52.074Z,39.80
2022-12-10T10:05:18.547Z,29.00
2022-12-10T10:07:49.772Z,29.75
2022-12-10T10:10:28.420Z,21.00
2022-12-10T10:12:56.277Z,21.75
2022-12-10T10:15:25.644Z,25.00
2022-12-10T10:17:54.069Z,24.00
2022-12-10T10:20:20.754Z,17.00
2022-12-10T10:22:47.261Z,25.25
2022-12-10T10:25:18.940Z,23.60
2022-12-10T10:27:45.665Z,17.25
2022-12-10T10:30:19.835Z,20.00
2022-12-10T10:32:50.344Z,30.00
2022-12-10T10:35:33.867Z,19.60
2022-12-10T10:38:15.569Z,28.67
2022-12-10T10:40:43.668Z,18.00
2022-12-10T10:43:21.269Z,29.50
2022-12-10T10:46:02.290Z,16.00
2022-12-10T10:48:29.473Z,14.60
2022-12-10T10:50:55.927Z,17.50
2022-12-10T10:53:22.363Z,32.00
2022-12-10T10:55:49.182Z,20.75
2022-12-10T10:58:19.828Z,17.20
2022-12-10T11:01:05.069Z,31.25
2022-12-10T11:03:33.440Z,28.40
2022-12-10T11:06:00.369Z,20.20
2022-12-10T11:08:30.111Z,30.00
2022-12-10T11:11:03.584Z,18.50
2022-12-10T11:13:34.332Z,24.00
2022-12-10T11:16:15.949Z,18.40
2022-12-10T11:18:43.737Z,23.00
2022-12-10T11:21:13.314Z,19.50
2022-12-10T11:23:41.237Z,25.00
2022-12-10T11:26:10.408Z,21.00
2022-12-10T11:28:42.313Z,18.60
2022-12-10T11:31:14.813Z,22.50
2022-12-10T11:33:53.970Z,22.00
2022-12-10T11:36:36.822Z,19.50
2022-12-10T11:39:21.861Z,21.00
2022-12-10T11:42:01.646Z,22.50
2022-12-10T11:44:41.023Z,17.60
2022-12-10T11:47:10.547Z,22.75
2022-12-10T11:49:40.638Z,21.00
2022-12-10T11:52:37.202Z,20.75
2022-12-10T11:55:16.010Z,25.00
2022-12-10T11:57:42.539Z,28.40
2022-12-10T12:00:23.334Z,27.40
2022-12-10T12:02:50.041Z,20.60
2022-12-10T12:05:25.761Z,19.00
2022-12-10T12:07:52.415Z,21.00
2022-12-10T12:10:52.502Z,24.00
2022-12-10T12:13:28.191Z,19.60
2022-12-10T12:16:08.023Z,15.00
2022-12-10T12:18:42.382Z,12.25
2022-12-10T12:21:10.677Z,14.00
2022-12-10T12:23:52.641Z,18.00
2022-12-10T12:26:39.348Z,14.60
2022-12-10T12:29:22.491Z,11.60
2022-12-10T12:32:03.800Z,10.20
2022-12-10T12:34:49.107Z,10.00
2022-12-10T12:37:17.298Z,9.00
2022-12-10T12:39:53.565Z,13.40
2022-12-10T12:42:23.116Z,18.00
2022-12-10T12:45:02.545Z,14.00
2022-12-10T12:47:34.924Z,11.60
2022-12-10T12:50:02.168Z,12.40
2022-12-10T12:52:28.723Z,13.80
2022-12-10T12:54:57.325Z,15.80
2022-12-10T12:57:23.895Z,14.60
2022-12-10T12:59:55.005Z,15.60
2022-12-10T13:02:30.329Z,13.00
2022-12-10T13:04:56.951Z,15.00
2022-12-10T13:07:23.390Z,14.00
2022-12-10T13:09:50.970Z,15.80
2022-12-10T13:12:29.663Z,12.40
2022-12-10T13:15:15.965Z,11.00
2022-12-10T13:18:01.745Z,15.00
2022-12-10T13:20:28.140Z,16.25
2022-12-10T13:23:00.094Z,16.40
2022-12-10T13:25:45.171Z,15.25
2022-12-10T13:28:22.620Z,14.20
2022-12-10T13:31:07.963Z,14.00
2022-12-10T13:34:08.602Z,16.00
2022-12-10T13:36:38.112Z,17.20
2022-12-10T13:39:04.502Z,17.80
2022-12-10T13:42:00.130Z,16.20
2022-12-10T13:44:33.221Z,18.25
2022-12-10T13:47:23.292Z,18.00
2022-12-10T13:49:49.703Z,19.00
2022-12-10T13:52:19.398Z,18.50
2022-12-10T13:54:51.863Z,15.00
2022-12-10T13:57:30.590Z,24.20
2022-12-10T14:00:04.133Z,21.67
2022-12-10T14:02:59.946Z,21.25
2022-12-10T14:05:26.351Z,24.20
2022-12-10T14:07:54.781Z,20.75
2022-12-10T14:10:23.830Z,26.25
2022-12-10T14:12:50.799Z,17.80
2022-12-10T14:15:23.663Z,21.40
2022-12-10T14:18:04.081Z,22.00
2022-12-10T14:20:35.230Z,18.00
2022-12-10T14:23:24.793Z,20.50
2022-12-10T14:25:52.480Z,24.80
2022-12-10T14:28:19.360Z,23.50
2022-12-10T14:30:47.391Z,17.25
2022-12-10T14:33:16.268Z,16.60
2022-12-10T14:35:42.990Z,18.00
2022-12-10T14:38:17.840Z,22.00
2022-12-10T14:40:44.355Z,20.20
2022-12-10T14:43:15.967Z,21.00
2022-12-10T14:45:47.852Z,16.00
2022-12-10T14:48:17.287Z,18.75
2022-12-10T14:50:44.748Z,17.60
2022-12-10T14:53:23.548Z,16.00
2022-12-10T14:55:55.021Z,15.00
2022-12-10T14:58:42.440Z,18.60
2022-12-10T15:01:18.329Z,15.00
2022-12-10T15:03:47.243Z,16.00
2022-12-10T15:06:16.719Z,19.00
2022-12-10T15:08:43.678Z,24.00
2022-12-10T15:11:15.609Z,15.00
2022-12-10T15:13:43.276Z,18.25
2022-12-10T15:16:35.915Z,13.60
2022-12-10T15:19:14.769Z,15.00
2022-12-10T15:21:42.229Z,15.50
2022-12-10T15:24:17.111Z,16.40
2022-12-10T15:26:45.345Z,13.00
2022-12-10T15:29:27.755Z,24.60
2022-12-10T15:31:56.569Z,18.50
2022-12-10T15:34:23.106Z,15.40
2022-12-10T15:36:49.536Z,16.00
2022-12-10T15:39:19.000Z,15.00
2022-12-10T15:41:52.883Z,15.00
2022-12-10T15:44:31.545Z,13.00
2022-12-10T15:47:01.039Z,15.40
2022-12-10T15:49:27.492Z,35.40
2022-12-10T15:51:54.044Z,19.00
2022-12-10T15:54:21.978Z,23.60
2022-12-10T15:56:48.447Z,28.40
2022-12-10T15:59:15.151Z,22.50
2022-12-10T16:01:41.654Z,24.00
2022-12-10T16:04:08.066Z,25.00
2022-12-10T16:06:34.495Z,33.50
2022-12-10T16:09:01.059Z,35.00
2022-12-10T16:11:27.683Z,35.20
2022-12-10T16:13:55.557Z,45.00
2022-12-10T16:16:22.059Z,36.80
2022-12-10T16:18:48.545Z,37.00
2022-12-10T16:21:15.117Z,27.20
2022-12-10T16:23:41.729Z,32.00
2022-12-10T16:26:19.295Z,37.40
2022-12-10T16:28:46.648Z,47.25
2022-12-10T16:31:15.190Z,40.75
2022-12-10T16:33:41.686Z,35.00
2022-12-10T16:36:08.413Z,34.00
2022-12-10T16:38:34.911Z,28.60
2022-12-10T16:41:02.158Z,31.00
2022-12-10T16:43:29.958Z,36.00
2022-12-10T16:45:56.489Z,26.60
2022-12-10T16:48:23.159Z,21.00
2022-12-10T16:50:50.818Z,31.00
2022-12-10T16:53:18.823Z,19.00
2022-12-10T16:55:45.802Z,21.20
2022-12-10T16:58:15.270Z,20.00
2022-12-10T17:00:44.312Z,19.75
2022-12-10T17:03:22.833Z,53.00
2022-12-10T17:05:51.382Z,46.00
2022-12-10T17:08:18.402Z,38.40
2022-12-10T17:11:04.159Z,32.60
2022-12-10T17:13:31.128Z,24.50
2022-12-10T17:15:58.470Z,36.00
2022-12-10T17:18:25.456Z,24.00
2022-12-10T17:20:51.924Z,30.50
2022-12-10T17:23:19.117Z,28.00
2022-12-10T17:25:46.077Z,29.00
2022-12-10T17:28:17.521Z,35.40
2022-12-10T17:30:44.042Z,30.60
2022-12-10T17:33:14.084Z,37.00
2022-12-10T17:35:42.158Z,27.00
2022-12-10T17:38:14.183Z,35.80
2022-12-10T17:40:40.684Z,33.50
2022-12-10T17:43:07.118Z,36.00
2022-12-10T17:45:33.714Z,34.00
2022-12-10T17:48:00.309Z,28.40
2022-12-10T17:50:32.396Z,27.40
2022-12-10T17:52:59.234Z,24.60
2022-12-10T17:55:26.375Z,25.20
2022-12-10T17:57:53.058Z,23.40
2022-12-10T18:00:21.552Z,31.60
2022-12-10T18:02:48.488Z,26.75
2022-12-10T18:05:15.304Z,31.00
2022-12-10T18:07:42.116Z,22.00
2022-12-10T18:10:15.547Z,26.40
2022-12-10T18:12:42.005Z,32.25
2022-12-10T18:15:08.587Z,33.00
2022-12-10T18:17:35.037Z,29.25
2022-12-10T18:20:01.497Z,34.25
2022-12-10T18:22:28.011Z,27.25
2022-12-10T18:24:54.495Z,34.75
2022-12-10T18:27:21.341Z,21.60
2022-12-10T18:29:47.772Z,32.80
2022-12-10T18:32:14.493Z,38.50
2022-12-10T18:34:40.948Z,41.00
2022-12-10T18:37:07.397Z,36.67
2022-12-10T18:39:35.409Z,26.00
2022-12-10T18:42:01.899Z,27.00
2022-12-10T18:44:29.041Z,34.00
2022-12-10T18:46:56.736Z,28.50
2022-12-10T18:49:23.430Z,21.00
2022-12-10T18:51:50.226Z,20.80
2022-12-10T18:54:17.176Z,21.40
2022-12-10T18:56:45.242Z,34.25
2022-12-10T18:59:18.154Z,25.00
2022-12-10T19:01:44.993Z,20.00
2022-12-10T19:04:12.115Z,24.60
2022-12-10T19:06:39.354Z,23.80
2022-12-10T19:09:18.115Z,26.60
2022-12-10T19:11:47.777Z,24.40
2022-12-10T19:14:14.944Z,61.00
2022-12-10T19:16:41.461Z,26.00
2022-12-10T19:19:09.921Z,34.00
2022-12-10T19:21:36.371Z,37.20
2022-12-10T19:24:02.875Z,28.25
2022-12-10T19:26:32.850Z,34.50
2022-12-10T19:28:59.546Z,36.60
2022-12-10T19:31:26.178Z,43.50
2022-12-10T19:33:52.705Z,31.20
2022-12-10T19:36:20.757Z,47.00
2022-12-10T19:38:47.672Z,34.00
2022-12-10T19:41:14.798Z,31.60
2022-12-10T19:43:41.709Z,28.20
2022-12-10T19:46:15.198Z,35.25
2022-12-10T19:48:42.166Z,26.80
2022-12-10T19:51:09.687Z,33.20
2022-12-10T19:53:37.091Z,26.00
2022-12-10T19:56:04.682Z,36.00
2022-12-10T19:58:31.209Z,29.40
2022-12-10T20:00:57.868Z,33.40
2022-12-10T20:03:24.360Z,30.00
2022-12-10T20:05:50.798Z,28.00
2022-12-10T20:08:17.329Z,25.20
2022-12-10T20:10:43.816Z,25.40
2022-12-10T20:13:10.306Z,20.00
2022-12-10T20:15:39.080Z,25.75
2022-12-10T20:18:07.617Z,32.40
2022-12-10T20:20:34.145Z,24.00
2022-12-10T20:23:01.217Z,27.00
2022-12-10T20:25:27.848Z,26.50
2022-12-10T20:27:54.273Z,29.40
2022-12-10T20:30:24.981Z,49.00
2022-12-10T20:32:51.800Z,47.25
2022-12-10T20:35:19.781Z,36.20
2022-12-10T20:37:46.565Z,29.00
2022-12-10T20:40:33.690Z,35.00
2022-12-10T20:43:00.937Z,31.80
2022-12-10T20:45:27.446Z,33.40
2022-12-10T20:47:53.978Z,20.40
2022-12-10T20:50:20.617Z,20.50
2022-12-10T20:52:47.253Z,27.75
2022-12-10T20:55:14.038Z,23.00
2022-12-10T20:57:40.582Z,18.50
2022-12-10T21:00:15.969Z,30.00
2022-12-10T21:02:43.047Z,18.75
2022-12-10T21:05:10.522Z,18.25
2022-12-10T21:07:37.263Z,31.25
2022-12-10T21:10:04.676Z,23.40
2022-12-10T21:12:31.172Z,18.00
2022-12-10T21:15:02.460Z,26.00
2022-12-10T21:17:33.145Z,34.25
2022-12-10T21:19:59.571Z,36.00
2022-12-10T21:22:25.981Z,48.00
2022-12-10T21:24:52.492Z,32.00
2022-12-10T21:27:19.086Z,34.75
2022-12-10T21:29:45.539Z,19.80
2022-12-10T21:32:12.018Z,32.00
2022-12-10T21:34:38.503Z,24.25
2022-12-10T21:37:04.957Z,25.25
2022-12-10T21:39:31.531Z,37.50
2022-12-10T21:42:16.396Z,27.00
2022-12-10T21:44:42.876Z,28.80
2022-12-10T21:47:09.381Z,28.00
2022-12-10T21:49:35.843Z,30.00
2022-12-10T21:52:02.347Z,34.25
2022-12-10T21:54:28.901Z,34.50
2022-12-10T21:56:55.390Z,49.20
2022-12-10T21:59:21.869Z,25.50
2022-12-10T22:01:48.366Z,29.80
2022-12-10T22:04:17.628Z,29.75
2022-12-10T22:06:44.370Z,32.00
2022-12-10T22:09:13.929Z,31.40
2022-12-10T22:11:40.429Z,35.25
2022-12-10T22:14:07.018Z,27.25
2022-12-10T22:16:33.604Z,29.25
2022-12-10T22:19:00.000Z,29.40
2022-12-10T22:21:26.432Z,28.00
2022-12-10T22:23:53.358Z,30.60
2022-12-10T22:26:20.640Z,27.00
2022-12-10T22:28:47.084Z,22.50
2022-12-10T22:31:13.994Z,28.00
2022-12-10T22:33:40.702Z,28.00
2022-12-10T22:36:07.737Z,25.00
2022-12-10T22:38:34.955Z,24.00
2022-12-10T22:41:04.852Z,30.00
2022-12-10T22:46:18.319Z,36.50
2022-12-10T22:48:44.965Z,35.75
2022-12-10T22:51:11.375Z,31.50
2022-12-10T22:53:37.865Z,27.20
2022-12-10T22:56:05.994Z,24.60
2022-12-10T22:58:32.574Z,31.75
2022-12-10T23:00:59.393Z,21.00
2022-12-10T23:03:26.591Z,18.75
2022-12-10T23:05:53.060Z,19.00
2022-12-10T23:08:20.280Z,21.80
2022-12-10T23:10:46.991Z,24.20
2022-12-10T23:13:16.599Z,25.40
2022-12-10T23:15:43.355Z,23.80
2022-12-10T23:18:10.496Z,23.50
2022-12-10T23:20:36.949Z,25.40
2022-12-10T23:23:03.397Z,25.50
2022-12-10T23:25:30.056Z,27.50
2022-12-10T23:27:56.595Z,26.80
2022-12-10T23:30:23.065Z,24.60
2022-12-10T23:32:50.082Z,27.60
2022-12-10T23:35:16.652Z,23.00
2022-12-10T23:37:43.381Z,25.00
2022-12-10T23:40:10.443Z,20.40
2022-12-10T23:42:36.978Z,26.00
2022-12-10T23:45:03.611Z,20.00
2022-12-10T23:47:32.404Z,19.80
2022-12-10T23:49:58.877Z,25.00
2022-12-10T23:52:25.541Z,19.60
2022-12-10T23:54:52.047Z,23.00
2022-12-10T23:57:18.579Z,21.50
2022-12-10T23:59:45.071Z,24.60
